KMYL

Mc Call Municipal Airport

Mc Call, Idaho, USA
METAR KMYL 161851Z AUTO 00000KT 5SM -SN BR FEW026 OVC034 M06/M07 A2995 RMK AO2 SNE16B40 SLP183 P0000 T10561072
Observed Flight Rules
Jan-16 @ 18:51 UTC (15 minutes ago) Marginal Visual Flight Rules
Visibility Clouds Conditions
5 miles
  • Few at 2,600' AGL
  • Overcast at 3,400' AGL
  • Light Snow
  • Mist
Temperatures Readings Precipitation
Current -6°C / 21°F
Dewpoint -7°C / 19°F
Humidity 93%
Altimeter 29.95" Hg
Pressure 1018.3 hPa
Elevation 1533
Current Rain 0.01
METAR KMYL 161851Z AUTO 00000KT 5SM -SN BR FEW026 OVC034 M06/M07 A2995 RMK AO2 SNE16B40 SLP183 P0000 T10561072
Observed Flight Rules
Jan-16 @ 18:51 UTC
(15 minutes ago)
MVFR
Clouds
  • Few at 2,600' AGL
  • Overcast at 3,400' AGL
Conditions
  • Light Snow
  • Mist
Temperature Dewpoint
-6°C / 21°F -7°C / 19°F
Humidity Altimeter Pressure
93% 29.95" Hg 1018.3 hPa
Current Rain
0.01